Moshannon, Pennsylvania
Current Conditions -  °F | °C
As of 5:53 PM on Tuesday 27 Jan 2015 (Local Time) from KUNV Reporting Station
Scattered Clouds Scattered Clouds  
Wind Chill: 17°   Ceiling: Unl
Heat Index: 25°   Visibility: 10mi
Dew Point: 14°   Wind: 7mph
Humidity: 64%   Direction: 320°NW
Pressure: 29.87"   Gusts: NA
Location:  41.03°N, 78°W
Report Text: KUNV 272253Z 32006KT 10SM SCT090 M04/M10 A2987
Loading
Personal Weather Stations






























Interactive Weather Map New forecast layout! Learn more

10-Day Weather Forecast

Advertisements
Track Severe Weather on mobile